createdAt,value
2018-06-13T00:01:55.968Z,14.10
2018-06-13T00:05:50.745Z,14.00
2018-06-13T00:09:44.751Z,14.00
2018-06-13T00:13:38.726Z,14.00
2018-06-13T00:17:32.651Z,14.00
2018-06-13T00:21:26.725Z,14.10
2018-06-13T00:25:21.116Z,14.20
2018-06-13T00:29:14.646Z,14.20
2018-06-13T00:33:09.389Z,14.40
2018-06-13T00:37:03.783Z,14.40
2018-06-13T00:40:57.748Z,14.50
2018-06-13T00:44:51.956Z,14.60
2018-06-13T00:48:46.195Z,14.80
2018-06-13T00:52:40.189Z,14.90
2018-06-13T00:56:34.206Z,15.00
2018-06-13T01:00:28.228Z,15.30
2018-06-13T01:04:22.294Z,15.20
2018-06-13T01:08:17.048Z,14.90
2018-06-13T01:12:11.063Z,14.80
2018-06-13T01:16:05.081Z,14.70
2018-06-13T01:19:59.195Z,14.80
2018-06-13T01:23:53.443Z,14.80
2018-06-13T01:27:47.479Z,14.80
2018-06-13T01:31:41.605Z,14.70
2018-06-13T01:35:36.023Z,14.70
2018-06-13T01:39:30.119Z,14.80
2018-06-13T01:43:24.341Z,14.80
2018-06-13T01:47:18.778Z,14.70
2018-06-13T01:51:12.900Z,14.70
2018-06-13T01:55:06.969Z,14.70
2018-06-13T01:59:01.462Z,14.80
2018-06-13T02:02:55.704Z,14.80
2018-06-13T02:06:51.371Z,14.80
2018-06-13T02:10:45.438Z,14.70
2018-06-13T02:14:40.519Z,14.80
2018-06-13T02:18:34.493Z,14.70
2018-06-13T02:22:28.567Z,14.70
2018-06-13T02:26:21.984Z,14.60
2018-06-13T02:30:15.968Z,14.60
2018-06-13T02:34:10.087Z,14.60
2018-06-13T02:38:04.069Z,14.50
2018-06-13T02:41:58.257Z,14.50
2018-06-13T02:45:52.506Z,14.50
2018-06-13T02:49:46.486Z,14.50
2018-06-13T02:53:40.923Z,14.50
2018-06-13T02:57:34.971Z,14.50
2018-06-13T03:01:29.136Z,14.40
2018-06-13T03:09:19.315Z,14.40
2018-06-13T03:13:13.317Z,14.40
2018-06-13T03:17:07.474Z,14.50
2018-06-13T03:21:01.767Z,14.50
2018-06-13T03:24:56.053Z,14.50
2018-06-13T03:28:50.043Z,14.50
2018-06-13T03:32:44.263Z,14.50
2018-06-13T03:36:38.227Z,14.50
2018-06-13T03:40:32.319Z,14.50
2018-06-13T03:44:26.286Z,14.50
2018-06-13T03:48:21.556Z,14.50
2018-06-13T03:52:15.616Z,14.50
2018-06-13T03:56:15.410Z,14.40
2018-06-13T04:00:09.419Z,14.40
2018-06-13T04:04:03.587Z,14.40
2018-06-13T04:07:58.050Z,14.40
2018-06-13T04:11:52.229Z,14.40
2018-06-13T04:15:46.162Z,14.50
2018-06-13T04:19:41.687Z,14.50
2018-06-13T04:23:36.714Z,14.50
2018-06-13T04:27:30.762Z,14.60
2018-06-13T04:31:25.361Z,14.70
2018-06-13T04:35:19.467Z,14.80
2018-06-13T04:39:13.603Z,14.90
2018-06-13T04:43:07.630Z,14.80
2018-06-13T04:47:01.620Z,14.80
2018-06-13T04:50:55.632Z,14.90
2018-06-13T04:54:49.813Z,14.90
2018-06-13T04:58:43.778Z,14.90
2018-06-13T05:02:46.634Z,14.90
2018-06-13T05:06:41.503Z,15.00
2018-06-13T05:10:35.513Z,14.90
2018-06-13T05:14:29.688Z,15.00
2018-06-13T05:18:24.077Z,15.10
2018-06-13T05:22:18.338Z,14.90
2018-06-13T05:26:12.573Z,15.00
2018-06-13T05:30:06.706Z,14.90
2018-06-13T05:34:01.022Z,15.10
2018-06-13T05:37:54.991Z,15.10
2018-06-13T05:45:42.762Z,15.20
2018-06-13T05:49:37.302Z,15.30
2018-06-13T05:53:31.526Z,15.50
2018-06-13T05:57:25.683Z,15.60
2018-06-13T06:01:19.770Z,15.50
2018-06-13T06:05:13.854Z,15.80
2018-06-13T06:09:09.007Z,16.10
2018-06-13T06:13:03.049Z,16.10
2018-06-13T06:16:57.478Z,15.70
2018-06-13T06:20:52.569Z,15.40
2018-06-13T06:24:47.134Z,15.50
2018-06-13T06:28:41.371Z,15.40
2018-06-13T06:32:35.631Z,15.40
2018-06-13T06:36:29.680Z,15.50
2018-06-13T06:40:23.708Z,15.90
2018-06-13T06:44:18.124Z,16.10
2018-06-13T06:48:13.221Z,16.30
2018-06-13T06:52:07.306Z,16.20
2018-06-13T06:56:01.267Z,16.40
2018-06-13T06:59:55.697Z,16.60
2018-06-13T07:03:49.966Z,16.60
2018-06-13T07:07:44.131Z,16.70
2018-06-13T07:11:38.288Z,16.80
2018-06-13T07:15:34.193Z,16.60
2018-06-13T07:19:29.761Z,16.60
2018-06-13T07:23:25.329Z,16.40
2018-06-13T07:27:19.506Z,16.30
2018-06-13T07:31:14.295Z,16.60
2018-06-13T07:35:09.549Z,16.90
2018-06-13T07:43:00.833Z,17.20
2018-06-13T07:46:55.132Z,17.40
2018-06-13T07:50:49.376Z,17.50
2018-06-13T07:54:43.852Z,17.50
2018-06-13T07:58:37.884Z,17.50
2018-06-13T08:02:31.928Z,17.30
2018-06-13T08:06:27.015Z,17.50
2018-06-13T08:10:22.109Z,17.70
2018-06-13T08:14:16.723Z,17.60
2018-06-13T08:18:11.437Z,17.20
2018-06-13T08:22:05.991Z,17.20
2018-06-13T08:26:00.830Z,17.40
2018-06-13T08:29:55.115Z,17.20
2018-06-13T08:33:49.472Z,17.20
2018-06-13T08:37:43.720Z,17.10
2018-06-13T08:41:37.772Z,16.80
2018-06-13T08:45:33.067Z,16.70
2018-06-13T08:49:27.334Z,16.60
2018-06-13T08:53:21.388Z,16.40
2018-06-13T08:57:15.718Z,16.40
2018-06-13T09:01:10.757Z,16.30
2018-06-13T09:05:04.821Z,16.50
2018-06-13T09:09:01.057Z,16.70
2018-06-13T09:12:55.137Z,16.80
2018-06-13T09:16:49.871Z,16.90
2018-06-13T09:20:44.116Z,17.00
2018-06-13T09:24:38.289Z,17.00
2018-06-13T09:28:33.294Z,16.70
2018-06-13T09:32:28.208Z,16.90
2018-06-13T09:36:22.391Z,17.10
2018-06-13T09:40:16.581Z,17.50
2018-06-13T09:44:10.709Z,18.30
2018-06-13T09:48:04.937Z,19.10
2018-06-13T09:51:59.162Z,19.50
2018-06-13T09:55:53.294Z,19.90
2018-06-13T09:59:53.637Z,19.30
2018-06-13T10:03:47.957Z,19.60
2018-06-13T10:07:42.058Z,19.10
2018-06-13T10:11:36.221Z,18.80
2018-06-13T10:15:30.408Z,18.50
2018-06-13T10:19:24.648Z,18.30
2018-06-13T10:23:18.840Z,17.90
2018-06-13T10:27:21.411Z,18.50
2018-06-13T10:31:15.604Z,18.30
2018-06-13T10:39:18.585Z,18.60
2018-06-13T10:43:12.660Z,18.10
2018-06-13T10:47:06.905Z,17.80
2018-06-13T10:51:03.891Z,17.90
2018-06-13T10:54:58.798Z,18.20
2018-06-13T10:58:55.811Z,18.90
2018-06-13T11:02:50.020Z,19.50
2018-06-13T11:06:45.282Z,19.50
2018-06-13T11:10:39.374Z,19.60
2018-06-13T11:14:33.914Z,20.20
2018-06-13T11:18:28.123Z,20.50
2018-06-13T11:22:23.767Z,20.40
2018-06-13T11:26:18.148Z,20.20
2018-06-13T11:30:12.602Z,20.30
2018-06-13T11:34:14.803Z,20.00
2018-06-13T11:38:20.798Z,19.00
2018-06-13T11:42:15.990Z,18.50
2018-06-13T11:46:10.889Z,18.10
2018-06-13T11:50:05.848Z,17.90
2018-06-13T11:54:00.239Z,18.10
2018-06-13T11:57:55.544Z,18.50
2018-06-13T12:01:52.849Z,19.00
2018-06-13T12:05:46.947Z,19.60
2018-06-13T12:09:40.867Z,20.30
2018-06-13T12:13:35.553Z,20.50
2018-06-13T12:17:29.682Z,20.20
2018-06-13T12:21:23.684Z,20.40
2018-06-13T12:25:17.824Z,20.60
2018-06-13T12:29:12.770Z,20.10
2018-06-13T12:33:08.194Z,19.80
2018-06-13T12:37:03.689Z,19.60
2018-06-13T12:40:57.869Z,19.20
2018-06-13T12:44:55.013Z,19.10
2018-06-13T12:48:52.787Z,19.30
2018-06-13T12:52:47.291Z,19.40
2018-06-13T12:56:42.333Z,19.60
2018-06-13T13:00:36.655Z,19.90
2018-06-13T13:04:31.446Z,20.20
2018-06-13T13:08:25.987Z,20.30
2018-06-13T13:12:21.664Z,20.50
2018-06-13T13:16:16.107Z,20.50
2018-06-13T13:20:10.325Z,20.60
2018-06-13T13:24:06.520Z,20.90
2018-06-13T13:28:01.184Z,21.00
2018-06-13T13:31:56.465Z,21.30
2018-06-13T13:35:50.864Z,21.20
2018-06-13T13:39:46.827Z,21.00
2018-06-13T13:43:41.418Z,20.50
2018-06-13T13:47:35.606Z,20.40
2018-06-13T13:51:29.904Z,20.00
2018-06-13T13:55:23.868Z,19.60
2018-06-13T13:59:18.282Z,19.60
2018-06-13T14:03:12.551Z,19.80
2018-06-13T14:07:06.802Z,20.10
2018-06-13T14:11:01.528Z,19.80
2018-06-13T14:14:55.689Z,19.60
2018-06-13T14:18:51.581Z,19.70
2018-06-13T14:22:45.700Z,20.10
2018-06-13T14:26:40.071Z,20.60
2018-06-13T14:30:34.359Z,20.60
2018-06-13T14:34:28.571Z,20.50
2018-06-13T14:38:22.641Z,20.90
2018-06-13T14:42:18.596Z,21.30
2018-06-13T14:46:12.759Z,21.00
2018-06-13T14:50:07.450Z,20.40
2018-06-13T14:54:01.870Z,20.10
2018-06-13T14:57:55.914Z,19.60
2018-06-13T15:01:51.697Z,19.80
2018-06-13T15:09:40.340Z,20.40
2018-06-13T15:13:34.380Z,20.60
2018-06-13T15:17:28.685Z,20.70
2018-06-13T15:21:23.771Z,20.90
2018-06-13T15:25:18.212Z,20.20
2018-06-13T15:29:13.861Z,19.80
2018-06-13T15:33:09.427Z,19.80
2018-06-13T15:37:03.663Z,19.80
2018-06-13T15:40:58.059Z,19.90
2018-06-13T15:44:52.069Z,19.70
2018-06-13T15:48:46.111Z,19.50
2018-06-13T15:52:40.215Z,19.60
2018-06-13T15:56:35.393Z,19.50
2018-06-13T16:00:32.237Z,19.60
2018-06-13T16:04:26.464Z,19.40
2018-06-13T16:08:20.830Z,19.30
2018-06-13T16:12:15.948Z,19.30
2018-06-13T16:16:09.950Z,19.20
2018-06-13T16:20:04.866Z,19.60
2018-06-13T16:24:00.496Z,20.00
2018-06-13T16:27:54.652Z,20.00
2018-06-13T16:31:48.871Z,20.00
2018-06-13T16:35:43.202Z,20.20
2018-06-13T16:39:40.069Z,19.60
2018-06-13T16:43:34.035Z,19.20
2018-06-13T16:47:28.384Z,19.00
2018-06-13T16:51:34.861Z,18.80
2018-06-13T16:55:29.064Z,18.90
2018-06-13T16:59:24.326Z,18.70
2018-06-13T17:03:18.795Z,18.60
2018-06-13T17:07:13.906Z,18.80
2018-06-13T17:11:09.147Z,18.70
2018-06-13T17:18:57.238Z,18.90
2018-06-13T17:22:54.777Z,18.70
2018-06-13T17:26:48.883Z,18.50
2018-06-13T17:30:43.427Z,18.50
2018-06-13T17:34:37.773Z,18.60
2018-06-13T17:38:33.288Z,18.70
2018-06-13T17:42:27.760Z,18.80
2018-06-13T17:46:21.911Z,18.70
2018-06-13T17:50:16.298Z,18.60
2018-06-13T17:54:11.156Z,18.60
2018-06-13T17:58:05.379Z,18.60
2018-06-13T18:01:59.532Z,18.70
2018-06-13T18:05:53.708Z,18.80
2018-06-13T18:09:48.072Z,18.80
2018-06-13T18:13:43.507Z,18.80
2018-06-13T18:17:38.587Z,18.80
2018-06-13T18:21:32.827Z,18.70
2018-06-13T18:25:26.919Z,18.70
2018-06-13T18:29:21.392Z,18.80
2018-06-13T18:33:15.688Z,18.80
2018-06-13T18:37:09.811Z,18.70
2018-06-13T18:41:03.999Z,18.40
2018-06-13T18:45:00.243Z,18.20
2018-06-13T18:48:54.382Z,18.10
2018-06-13T18:52:48.428Z,17.90
2018-06-13T18:56:42.456Z,17.80
2018-06-13T19:00:36.638Z,17.70
2018-06-13T19:04:30.671Z,17.60
2018-06-13T19:08:25.235Z,17.60
2018-06-13T19:12:19.237Z,17.50
2018-06-13T19:16:13.348Z,17.30
2018-06-13T19:20:07.456Z,17.20
2018-06-13T19:24:01.632Z,17.10
2018-06-13T19:27:55.677Z,16.90
2018-06-13T19:31:50.324Z,16.80
2018-06-13T19:35:44.364Z,16.60
2018-06-13T19:39:38.711Z,16.50
2018-06-13T19:43:39.791Z,16.30
2018-06-13T19:47:39.317Z,16.20
2018-06-13T19:51:34.347Z,16.10
2018-06-13T19:55:33.769Z,16.00
2018-06-13T19:59:27.894Z,15.90
2018-06-13T20:03:27.293Z,15.80
2018-06-13T20:07:21.385Z,15.80
2018-06-13T20:11:15.578Z,15.70
2018-06-13T20:15:15.363Z,15.70
2018-06-13T20:19:15.070Z,15.60
2018-06-13T20:23:09.439Z,15.50
2018-06-13T20:27:09.568Z,15.50
2018-06-13T20:31:10.514Z,15.40
2018-06-13T20:35:04.599Z,15.30
2018-06-13T20:38:58.763Z,15.30
2018-06-13T20:42:53.355Z,15.40
2018-06-13T20:46:47.514Z,15.40
2018-06-13T20:50:41.768Z,15.30
2018-06-13T20:54:35.811Z,15.30
2018-06-13T20:58:29.933Z,15.20
2018-06-13T21:02:24.239Z,15.40
2018-06-13T21:06:19.348Z,15.40
2018-06-13T21:10:13.901Z,15.10
2018-06-13T21:14:07.839Z,14.90
2018-06-13T22:28:53.067Z,13.90
2018-06-13T22:32:48.667Z,13.80
2018-06-13T22:36:42.893Z,13.80
2018-06-13T22:40:37.195Z,13.70
2018-06-13T22:44:31.815Z,13.80
2018-06-13T22:48:28.193Z,13.90
2018-06-13T22:52:22.589Z,13.90
2018-06-13T22:56:16.759Z,13.80
2018-06-13T23:00:13.422Z,13.80
2018-06-13T23:04:07.398Z,13.70
2018-06-13T23:08:01.478Z,13.70
2018-06-13T23:11:55.526Z,13.60
2018-06-13T23:15:49.970Z,13.60
2018-06-13T23:19:43.967Z,13.60
2018-06-13T23:23:37.991Z,13.60
2018-06-13T23:27:32.050Z,13.50
2018-06-13T23:35:19.942Z,13.60
2018-06-13T23:39:14.086Z,13.50
2018-06-13T23:43:08.168Z,13.40
2018-06-13T23:47:02.460Z,13.40
2018-06-13T23:50:56.525Z,13.40
2018-06-13T23:54:50.632Z,13.50
2018-06-13T23:58:45.467Z,13.30
